Welcome to La Porte Aviation Services!

An aviation adventure awaits

Current Weather Conditions

Available data for KPPO from the past 2 hours
LA PORTE, IN
Metar
KPPO 270815Z AUTO 30005KT 10SM SCT047 SCT080 OVC100 M04/M09 A3004 RMK AO2 T10391090

08:15 UTC

Wind: 300° 5kt

Visibility: 10 SM

Sky: SCT 4700 ft

Temp: -4 deg C / 24.8 deg F

Dewpoint: -9 deg C / 15.8 deg F

Pressure: 30.04 inHg

Connect with us on Facebook!

Facebook By Weblizar Powered By Weblizar